sensor_id;sensor_type;location;lat;lon;timestamp;temperature;humidity
4727;DHT22;2377;51.734;8.950;2023-01-23T00:02:20;1.50;99.90
4727;DHT22;2377;51.734;8.950;2023-01-23T00:04:48;1.40;99.90
4727;DHT22;2377;51.734;8.950;2023-01-23T00:07:15;1.40;99.90
4727;DHT22;2377;51.734;8.950;2023-01-23T00:09:42;1.40;99.90
4727;DHT22;2377;51.734;8.950;2023-01-23T00:12:10;1.40;99.90
4727;DHT22;2377;51.734;8.950;2023-01-23T00:14:37;1.40;99.90
4727;DHT22;2377;51.734;8.950;2023-01-23T00:17:05;1.40;99.90
4727;DHT22;2377;51.734;8.950;2023-01-23T00:19:32;1.40;99.90
4727;DHT22;2377;51.734;8.950;2023-01-23T00:21:59;1.40;99.90
4727;DHT22;2377;51.734;8.950;2023-01-23T00:24:30;1.30;99.90
4727;DHT22;2377;51.734;8.950;2023-01-23T00:26:57;1.40;99.90
4727;DHT22;2377;51.734;8.950;2023-01-23T00:29:24;1.40;99.90
4727;DHT22;2377;51.734;8.950;2023-01-23T00:31:51;1.40;99.90
4727;DHT22;2377;51.734;8.950;2023-01-23T00:34:19;1.40;99.90
4727;DHT22;2377;51.734;8.950;2023-01-23T00:36:46;1.40;99.90
4727;DHT22;2377;51.734;8.950;2023-01-23T00:39:15;1.40;99.90
4727;DHT22;2377;51.734;8.950;2023-01-23T00:41:45;1.40;99.90
4727;DHT22;2377;51.734;8.950;2023-01-23T00:44:13;1.40;99.90
4727;DHT22;2377;51.734;8.950;2023-01-23T00:46:41;1.40;99.90
4727;DHT22;2377;51.734;8.950;2023-01-23T00:49:08;1.30;99.90
4727;DHT22;2377;51.734;8.950;2023-01-23T00:51:36;1.30;99.90
4727;DHT22;2377;51.734;8.950;2023-01-23T00:54:04;1.30;99.90
4727;DHT22;2377;51.734;8.950;2023-01-23T00:56:31;1.30;99.90
4727;DHT22;2377;51.734;8.950;2023-01-23T00:58:58;1.30;99.90
4727;DHT22;2377;51.734;8.950;2023-01-23T01:01:25;1.30;99.90
4727;DHT22;2377;51.734;8.950;2023-01-23T01:03:53;1.30;99.90
4727;DHT22;2377;51.734;8.950;2023-01-23T01:06:20;1.30;99.90
4727;DHT22;2377;51.734;8.950;2023-01-23T01:08:49;1.30;99.90
4727;DHT22;2377;51.734;8.950;2023-01-23T01:11:16;1.30;99.90
4727;DHT22;2377;51.734;8.950;2023-01-23T01:13:44;1.30;99.90
4727;DHT22;2377;51.734;8.950;2023-01-23T01:16:11;1.30;99.90
4727;DHT22;2377;51.734;8.950;2023-01-23T01:18:38;1.30;99.90
4727;DHT22;2377;51.734;8.950;2023-01-23T01:21:06;1.30;99.90
4727;DHT22;2377;51.734;8.950;2023-01-23T01:23:35;1.30;99.90
4727;DHT22;2377;51.734;8.950;2023-01-23T01:26:04;1.30;99.90
4727;DHT22;2377;51.734;8.950;2023-01-23T01:28:33;1.30;99.90
4727;DHT22;2377;51.734;8.950;2023-01-23T01:31:04;1.30;99.90
4727;DHT22;2377;51.734;8.950;2023-01-23T01:33:33;1.30;99.90
4727;DHT22;2377;51.734;8.950;2023-01-23T01:36:01;1.30;99.90
4727;DHT22;2377;51.734;8.950;2023-01-23T01:38:28;1.30;99.90
4727;DHT22;2377;51.734;8.950;2023-01-23T01:40:55;1.30;99.90
4727;DHT22;2377;51.734;8.950;2023-01-23T01:43:25;1.30;99.90
4727;DHT22;2377;51.734;8.950;2023-01-23T01:46:12;1.30;99.90
4727;DHT22;2377;51.734;8.950;2023-01-23T01:48:53;1.30;99.90
4727;DHT22;2377;51.734;8.950;2023-01-23T01:51:38;1.30;99.90
4727;DHT22;2377;51.734;8.950;2023-01-23T01:54:13;1.30;99.90
4727;DHT22;2377;51.734;8.950;2023-01-23T01:56:48;1.30;99.90
4727;DHT22;2377;51.734;8.950;2023-01-23T01:59:22;1.30;99.90
4727;DHT22;2377;51.734;8.950;2023-01-23T02:01:55;1.30;99.90
4727;DHT22;2377;51.734;8.950;2023-01-23T02:04:30;1.30;99.90
4727;DHT22;2377;51.734;8.950;2023-01-23T02:06:59;1.30;99.90
4727;DHT22;2377;51.734;8.950;2023-01-23T02:09:31;1.30;99.90
4727;DHT22;2377;51.734;8.950;2023-01-23T02:11:59;1.30;99.90
4727;DHT22;2377;51.734;8.950;2023-01-23T02:14:28;1.30;99.90
4727;DHT22;2377;51.734;8.950;2023-01-23T02:16:56;1.30;99.90
4727;DHT22;2377;51.734;8.950;2023-01-23T02:19:45;1.30;99.90
4727;DHT22;2377;51.734;8.950;2023-01-23T02:22:26;1.30;99.90
4727;DHT22;2377;51.734;8.950;2023-01-23T02:25:07;1.30;99.90
4727;DHT22;2377;51.734;8.950;2023-01-23T02:27:43;1.30;99.90
4727;DHT22;2377;51.734;8.950;2023-01-23T02:30:11;1.30;99.90
4727;DHT22;2377;51.734;8.950;2023-01-23T02:32:40;1.30;99.90
4727;DHT22;2377;51.734;8.950;2023-01-23T02:35:11;1.30;99.90
4727;DHT22;2377;51.734;8.950;2023-01-23T02:37:43;1.30;99.90
4727;DHT22;2377;51.734;8.950;2023-01-23T02:40:12;1.30;99.90
4727;DHT22;2377;51.734;8.950;2023-01-23T02:42:43;1.30;99.90
4727;DHT22;2377;51.734;8.950;2023-01-23T02:45:12;1.40;99.90
4727;DHT22;2377;51.734;8.950;2023-01-23T02:47:39;1.40;99.90
4727;DHT22;2377;51.734;8.950;2023-01-23T02:50:07;1.40;99.90
4727;DHT22;2377;51.734;8.950;2023-01-23T02:52:35;1.40;99.90
4727;DHT22;2377;51.734;8.950;2023-01-23T02:55:02;1.40;99.90
4727;DHT22;2377;51.734;8.950;2023-01-23T02:57:29;1.40;99.90
4727;DHT22;2377;51.734;8.950;2023-01-23T02:59:57;1.40;99.90
4727;DHT22;2377;51.734;8.950;2023-01-23T03:02:45;1.40;99.90
4727;DHT22;2377;51.734;8.950;2023-01-23T03:05:13;1.50;99.90
4727;DHT22;2377;51.734;8.950;2023-01-23T03:07:40;1.40;99.90
4727;DHT22;2377;51.734;8.950;2023-01-23T03:10:09;1.50;99.90
4727;DHT22;2377;51.734;8.950;2023-01-23T03:12:37;1.40;99.90
4727;DHT22;2377;51.734;8.950;2023-01-23T03:15:10;1.30;99.90
4727;DHT22;2377;51.734;8.950;2023-01-23T03:17:37;1.30;99.90
4727;DHT22;2377;51.734;8.950;2023-01-23T03:20:05;1.30;99.90
4727;DHT22;2377;51.734;8.950;2023-01-23T03:22:33;1.40;99.90
4727;DHT22;2377;51.734;8.950;2023-01-23T03:25:00;1.30;99.90
4727;DHT22;2377;51.734;8.950;2023-01-23T03:27:27;1.30;99.90
4727;DHT22;2377;51.734;8.950;2023-01-23T03:29:54;1.40;99.90
4727;DHT22;2377;51.734;8.950;2023-01-23T03:32:39;1.40;99.90
4727;DHT22;2377;51.734;8.950;2023-01-23T03:35:08;1.40;99.90
4727;DHT22;2377;51.734;8.950;2023-01-23T03:37:38;1.40;99.90
4727;DHT22;2377;51.734;8.950;2023-01-23T03:40:07;1.50;99.90
4727;DHT22;2377;51.734;8.950;2023-01-23T03:42:57;1.40;99.90
4727;DHT22;2377;51.734;8.950;2023-01-23T03:45:24;1.50;99.90
4727;DHT22;2377;51.734;8.950;2023-01-23T03:47:53;1.40;99.90
4727;DHT22;2377;51.734;8.950;2023-01-23T03:50:20;1.50;99.90
4727;DHT22;2377;51.734;8.950;2023-01-23T03:52:47;1.50;99.90
4727;DHT22;2377;51.734;8.950;2023-01-23T03:55:14;1.50;99.90
4727;DHT22;2377;51.734;8.950;2023-01-23T03:57:41;1.50;99.90
4727;DHT22;2377;51.734;8.950;2023-01-23T04:00:09;1.50;99.90
4727;DHT22;2377;51.734;8.950;2023-01-23T04:02:38;1.40;99.90
4727;DHT22;2377;51.734;8.950;2023-01-23T04:05:07;1.50;99.90
4727;DHT22;2377;51.734;8.950;2023-01-23T04:07:35;1.50;99.90
4727;DHT22;2377;51.734;8.950;2023-01-23T04:10:05;1.50;99.90
4727;DHT22;2377;51.734;8.950;2023-01-23T04:12:33;1.50;99.90
4727;DHT22;2377;51.734;8.950;2023-01-23T04:15:00;1.40;99.90
4727;DHT22;2377;51.734;8.950;2023-01-23T04:17:27;1.50;99.90
4727;DHT22;2377;51.734;8.950;2023-01-23T04:19:54;1.50;99.90
4727;DHT22;2377;51.734;8.950;2023-01-23T04:22:23;1.50;99.90
4727;DHT22;2377;51.734;8.950;2023-01-23T04:24:50;1.50;99.90
4727;DHT22;2377;51.734;8.950;2023-01-23T04:27:17;1.50;99.90
4727;DHT22;2377;51.734;8.950;2023-01-23T04:29:44;1.50;99.90
4727;DHT22;2377;51.734;8.950;2023-01-23T04:32:12;1.50;99.90
4727;DHT22;2377;51.734;8.950;2023-01-23T04:34:40;1.50;99.90
4727;DHT22;2377;51.734;8.950;2023-01-23T04:37:07;1.50;99.90
4727;DHT22;2377;51.734;8.950;2023-01-23T04:39:35;1.50;99.90
4727;DHT22;2377;51.734;8.950;2023-01-23T04:42:03;1.50;99.90
4727;DHT22;2377;51.734;8.950;2023-01-23T04:44:30;1.50;99.90
4727;DHT22;2377;51.734;8.950;2023-01-23T04:46:57;1.50;99.90
4727;DHT22;2377;51.734;8.950;2023-01-23T04:49:25;1.50;99.90
4727;DHT22;2377;51.734;8.950;2023-01-23T04:51:52;1.50;99.90
4727;DHT22;2377;51.734;8.950;2023-01-23T04:54:20;1.50;99.90
4727;DHT22;2377;51.734;8.950;2023-01-23T04:56:49;1.50;99.90
4727;DHT22;2377;51.734;8.950;2023-01-23T04:59:16;1.50;99.90
4727;DHT22;2377;51.734;8.950;2023-01-23T05:01:43;1.40;99.90
4727;DHT22;2377;51.734;8.950;2023-01-23T05:04:11;1.50;99.90
4727;DHT22;2377;51.734;8.950;2023-01-23T05:06:38;1.40;99.90
4727;DHT22;2377;51.734;8.950;2023-01-23T05:09:05;1.40;99.90
4727;DHT22;2377;51.734;8.950;2023-01-23T05:11:33;1.40;99.90
4727;DHT22;2377;51.734;8.950;2023-01-23T05:14:01;1.40;99.90
4727;DHT22;2377;51.734;8.950;2023-01-23T05:16:28;1.40;99.90
4727;DHT22;2377;51.734;8.950;2023-01-23T05:18:55;1.40;99.90
4727;DHT22;2377;51.734;8.950;2023-01-23T05:21:22;1.40;99.90
4727;DHT22;2377;51.734;8.950;2023-01-23T05:23:49;1.40;99.90
4727;DHT22;2377;51.734;8.950;2023-01-23T05:26:16;1.40;99.90
4727;DHT22;2377;51.734;8.950;2023-01-23T05:28:43;1.50;99.90
4727;DHT22;2377;51.734;8.950;2023-01-23T05:31:12;1.50;99.90
4727;DHT22;2377;51.734;8.950;2023-01-23T05:33:39;1.60;99.90
4727;DHT22;2377;51.734;8.950;2023-01-23T05:36:07;1.50;99.90
4727;DHT22;2377;51.734;8.950;2023-01-23T05:38:34;1.50;99.90
4727;DHT22;2377;51.734;8.950;2023-01-23T05:41:01;1.50;99.90
4727;DHT22;2377;51.734;8.950;2023-01-23T05:43:28;1.50;99.90
4727;DHT22;2377;51.734;8.950;2023-01-23T05:45:58;1.50;99.90
4727;DHT22;2377;51.734;8.950;2023-01-23T05:48:27;1.50;99.90
4727;DHT22;2377;51.734;8.950;2023-01-23T05:50:55;1.50;99.90
4727;DHT22;2377;51.734;8.950;2023-01-23T05:53:22;1.50;99.90
4727;DHT22;2377;51.734;8.950;2023-01-23T05:55:49;1.50;99.90
4727;DHT22;2377;51.734;8.950;2023-01-23T05:58:16;1.40;99.90
4727;DHT22;2377;51.734;8.950;2023-01-23T06:00:43;1.40;99.90
4727;DHT22;2377;51.734;8.950;2023-01-23T06:03:10;1.40;99.90
4727;DHT22;2377;51.734;8.950;2023-01-23T06:05:39;1.40;99.90
4727;DHT22;2377;51.734;8.950;2023-01-23T06:08:06;1.40;99.90
4727;DHT22;2377;51.734;8.950;2023-01-23T06:10:35;1.50;99.90
4727;DHT22;2377;51.734;8.950;2023-01-23T06:13:02;1.40;99.90
4727;DHT22;2377;51.734;8.950;2023-01-23T06:15:30;1.40;99.90
4727;DHT22;2377;51.734;8.950;2023-01-23T06:17:57;1.40;99.90
4727;DHT22;2377;51.734;8.950;2023-01-23T06:20:24;1.40;99.90
4727;DHT22;2377;51.734;8.950;2023-01-23T06:22:52;1.40;99.90
4727;DHT22;2377;51.734;8.950;2023-01-23T06:25:19;1.40;99.90
4727;DHT22;2377;51.734;8.950;2023-01-23T06:27:47;1.40;99.90
4727;DHT22;2377;51.734;8.950;2023-01-23T06:30:14;1.40;99.90
4727;DHT22;2377;51.734;8.950;2023-01-23T06:32:41;1.30;99.90
4727;DHT22;2377;51.734;8.950;2023-01-23T06:35:09;1.40;99.90
4727;DHT22;2377;51.734;8.950;2023-01-23T06:37:36;1.40;99.90
4727;DHT22;2377;51.734;8.950;2023-01-23T06:40:05;1.40;99.90
4727;DHT22;2377;51.734;8.950;2023-01-23T06:42:37;1.40;99.90
4727;DHT22;2377;51.734;8.950;2023-01-23T06:45:05;1.40;99.90
4727;DHT22;2377;51.734;8.950;2023-01-23T06:47:33;1.30;99.90
4727;DHT22;2377;51.734;8.950;2023-01-23T06:50:00;1.30;99.90
4727;DHT22;2377;51.734;8.950;2023-01-23T06:52:28;1.30;99.90
4727;DHT22;2377;51.734;8.950;2023-01-23T06:54:55;1.40;99.90
4727;DHT22;2377;51.734;8.950;2023-01-23T06:57:24;1.30;99.90
4727;DHT22;2377;51.734;8.950;2023-01-23T06:59:51;1.40;99.90
4727;DHT22;2377;51.734;8.950;2023-01-23T07:02:18;1.40;99.90
4727;DHT22;2377;51.734;8.950;2023-01-23T07:04:45;1.40;99.90
4727;DHT22;2377;51.734;8.950;2023-01-23T07:07:12;1.40;99.90
4727;DHT22;2377;51.734;8.950;2023-01-23T07:09:40;1.40;99.90
4727;DHT22;2377;51.734;8.950;2023-01-23T07:12:07;1.40;99.90
4727;DHT22;2377;51.734;8.950;2023-01-23T07:14:35;1.40;99.90
4727;DHT22;2377;51.734;8.950;2023-01-23T07:17:02;1.30;99.90
4727;DHT22;2377;51.734;8.950;2023-01-23T07:19:29;1.30;99.90
4727;DHT22;2377;51.734;8.950;2023-01-23T07:21:56;1.40;99.90
4727;DHT22;2377;51.734;8.950;2023-01-23T07:24:25;1.30;99.90
4727;DHT22;2377;51.734;8.950;2023-01-23T07:26:54;1.40;99.90
4727;DHT22;2377;51.734;8.950;2023-01-23T07:29:21;1.40;99.90
4727;DHT22;2377;51.734;8.950;2023-01-23T07:31:50;1.40;99.90
4727;DHT22;2377;51.734;8.950;2023-01-23T07:34:17;1.40;99.90
4727;DHT22;2377;51.734;8.950;2023-01-23T07:36:44;1.40;99.90
4727;DHT22;2377;51.734;8.950;2023-01-23T07:39:11;1.30;99.90
4727;DHT22;2377;51.734;8.950;2023-01-23T07:41:38;1.40;99.90
4727;DHT22;2377;51.734;8.950;2023-01-23T07:44:05;1.40;99.90
4727;DHT22;2377;51.734;8.950;2023-01-23T07:46:32;1.40;99.90
4727;DHT22;2377;51.734;8.950;2023-01-23T07:49:01;1.50;99.90
4727;DHT22;2377;51.734;8.950;2023-01-23T07:51:28;1.60;99.90
4727;DHT22;2377;51.734;8.950;2023-01-23T07:53:55;1.50;99.90
4727;DHT22;2377;51.734;8.950;2023-01-23T07:56:22;1.50;99.90
4727;DHT22;2377;51.734;8.950;2023-01-23T07:58:49;1.50;99.90
4727;DHT22;2377;51.734;8.950;2023-01-23T08:01:16;1.50;99.90
4727;DHT22;2377;51.734;8.950;2023-01-23T08:03:44;1.50;99.90
4727;DHT22;2377;51.734;8.950;2023-01-23T08:06:13;1.50;99.90
4727;DHT22;2377;51.734;8.950;2023-01-23T08:08:43;1.50;99.90
4727;DHT22;2377;51.734;8.950;2023-01-23T08:11:13;1.50;99.90
4727;DHT22;2377;51.734;8.950;2023-01-23T08:13:40;1.50;99.90
4727;DHT22;2377;51.734;8.950;2023-01-23T08:16:07;1.50;99.90
4727;DHT22;2377;51.734;8.950;2023-01-23T08:18:35;1.60;99.90
4727;DHT22;2377;51.734;8.950;2023-01-23T08:21:02;1.60;99.90
4727;DHT22;2377;51.734;8.950;2023-01-23T08:23:32;1.60;99.90
4727;DHT22;2377;51.734;8.950;2023-01-23T08:26:02;1.60;99.90
4727;DHT22;2377;51.734;8.950;2023-01-23T08:28:31;1.60;99.90
4727;DHT22;2377;51.734;8.950;2023-01-23T08:30:59;1.60;99.90
4727;DHT22;2377;51.734;8.950;2023-01-23T08:33:27;1.60;99.90
4727;DHT22;2377;51.734;8.950;2023-01-23T08:35:55;1.70;99.90
4727;DHT22;2377;51.734;8.950;2023-01-23T08:38:24;1.70;99.90
4727;DHT22;2377;51.734;8.950;2023-01-23T08:40:57;1.80;99.90
4727;DHT22;2377;51.734;8.950;2023-01-23T08:43:26;1.80;62.90
4727;DHT22;2377;51.734;8.950;2023-01-23T08:45:55;1.80;99.90
4727;DHT22;2377;51.734;8.950;2023-01-23T08:48:25;1.80;99.90
4727;DHT22;2377;51.734;8.950;2023-01-23T08:50:58;1.80;99.90
4727;DHT22;2377;51.734;8.950;2023-01-23T08:53:27;1.90;99.90
4727;DHT22;2377;51.734;8.950;2023-01-23T08:55:59;1.90;99.90
4727;DHT22;2377;51.734;8.950;2023-01-23T08:58:26;2.00;99.90
4727;DHT22;2377;51.734;8.950;2023-01-23T09:00:54;2.00;99.90
4727;DHT22;2377;51.734;8.950;2023-01-23T09:03:21;2.10;99.90
4727;DHT22;2377;51.734;8.950;2023-01-23T09:05:48;2.10;99.90
4727;DHT22;2377;51.734;8.950;2023-01-23T09:08:16;2.10;99.90
4727;DHT22;2377;51.734;8.950;2023-01-23T09:10:43;2.20;87.40
4727;DHT22;2377;51.734;8.950;2023-01-23T09:13:12;2.20;90.10
4727;DHT22;2377;51.734;8.950;2023-01-23T09:15:39;2.20;87.50
4727;DHT22;2377;51.734;8.950;2023-01-23T09:18:06;2.20;86.90
4727;DHT22;2377;51.734;8.950;2023-01-23T09:20:33;2.30;86.30
4727;DHT22;2377;51.734;8.950;2023-01-23T09:23:00;2.30;74.00
4727;DHT22;2377;51.734;8.950;2023-01-23T09:25:27;2.30;70.90
4727;DHT22;2377;51.734;8.950;2023-01-23T09:27:55;2.30;73.80
4727;DHT22;2377;51.734;8.950;2023-01-23T09:30:24;2.30;61.10
4727;DHT22;2377;51.734;8.950;2023-01-23T09:32:52;2.30;70.30
4727;DHT22;2377;51.734;8.950;2023-01-23T09:35:19;2.30;79.10
4727;DHT22;2377;51.734;8.950;2023-01-23T09:37:47;2.30;83.30
4727;DHT22;2377;51.734;8.950;2023-01-23T09:40:31;2.40;74.30
4727;DHT22;2377;51.734;8.950;2023-01-23T09:43:09;2.50;73.10
4727;DHT22;2377;51.734;8.950;2023-01-23T09:45:55;2.50;72.40
4727;DHT22;2377;51.734;8.950;2023-01-23T09:48:30;2.50;59.10
4727;DHT22;2377;51.734;8.950;2023-01-23T09:51:12;2.50;73.30
4727;DHT22;2377;51.734;8.950;2023-01-23T09:53:46;2.50;61.90
4727;DHT22;2377;51.734;8.950;2023-01-23T09:56:26;2.60;66.20
4727;DHT22;2377;51.734;8.950;2023-01-23T09:58:59;2.60;60.90
4727;DHT22;2377;51.734;8.950;2023-01-23T10:01:33;2.60;61.10
4727;DHT22;2377;51.734;8.950;2023-01-23T10:04:02;2.60;52.50
4727;DHT22;2377;51.734;8.950;2023-01-23T10:06:32;2.60;56.10
4727;DHT22;2377;51.734;8.950;2023-01-23T10:09:25;2.60;57.30
4727;DHT22;2377;51.734;8.950;2023-01-23T10:12:09;2.60;52.90
4727;DHT22;2377;51.734;8.950;2023-01-23T10:15:18;2.60;50.70
4727;DHT22;2377;51.734;8.950;2023-01-23T10:18:05;2.60;49.80
4727;DHT22;2377;51.734;8.950;2023-01-23T10:20:56;2.60;48.60
4727;DHT22;2377;51.734;8.950;2023-01-23T10:23:44;2.60;53.40
4727;DHT22;2377;51.734;8.950;2023-01-23T10:26:21;2.60;48.90
4727;DHT22;2377;51.734;8.950;2023-01-23T10:28:52;2.60;50.40
4727;DHT22;2377;51.734;8.950;2023-01-23T10:31:29;2.60;49.50
4727;DHT22;2377;51.734;8.950;2023-01-23T10:34:10;2.60;67.60
4727;DHT22;2377;51.734;8.950;2023-01-23T10:37:01;2.70;49.90
4727;DHT22;2377;51.734;8.950;2023-01-23T10:39:46;2.70;45.90
4727;DHT22;2377;51.734;8.950;2023-01-23T10:42:20;2.80;41.10
4727;DHT22;2377;51.734;8.950;2023-01-23T10:44:48;2.80;46.30
4727;DHT22;2377;51.734;8.950;2023-01-23T10:47:20;2.80;43.10
4727;DHT22;2377;51.734;8.950;2023-01-23T10:49:52;2.80;48.30
4727;DHT22;2377;51.734;8.950;2023-01-23T10:52:31;2.90;38.40
4727;DHT22;2377;51.734;8.950;2023-01-23T10:55:03;3.00;49.90
4727;DHT22;2377;51.734;8.950;2023-01-23T10:57:53;3.00;29.00
4727;DHT22;2377;51.734;8.950;2023-01-23T11:00:26;3.10;29.50
4727;DHT22;2377;51.734;8.950;2023-01-23T11:06:04;3.20;19.70
4727;DHT22;2377;51.734;8.950;2023-01-23T11:08:34;3.30;18.10
4727;DHT22;2377;51.734;8.950;2023-01-23T11:11:23;3.30;18.40
4727;DHT22;2377;51.734;8.950;2023-01-23T11:14:04;3.30;6.00
4727;DHT22;2377;51.734;8.950;2023-01-23T11:16:34;3.40;10.20
4727;DHT22;2377;51.734;8.950;2023-01-23T11:19:11;3.30;7.40
4727;DHT22;2377;51.734;8.950;2023-01-23T11:21:53;3.30;4.80
4727;DHT22;2377;51.734;8.950;2023-01-23T11:24:29;3.20;4.80
4727;DHT22;2377;51.734;8.950;2023-01-23T11:26:59;3.20;9.50
4727;DHT22;2377;51.734;8.950;2023-01-23T11:29:28;3.20;4.30
4727;DHT22;2377;51.734;8.950;2023-01-23T11:32:03;3.10;7.80
4727;DHT22;2377;51.734;8.950;2023-01-23T11:34:39;3.10;8.80
4727;DHT22;2377;51.734;8.950;2023-01-23T11:37:14;3.10;15.20
4727;DHT22;2377;51.734;8.950;2023-01-23T11:39:49;3.20;3.30
4727;DHT22;2377;51.734;8.950;2023-01-23T11:42:25;3.30;10.70
4727;DHT22;2377;51.734;8.950;2023-01-23T11:44:54;3.30;6.50
4727;DHT22;2377;51.734;8.950;2023-01-23T11:47:38;3.30;1.40
4727;DHT22;2377;51.734;8.950;2023-01-23T11:50:36;3.30;1.00
4727;DHT22;2377;51.734;8.950;2023-01-23T11:53:20;3.30;1.00
4727;DHT22;2377;51.734;8.950;2023-01-23T11:59:23;3.30;17.20
4727;DHT22;2377;51.734;8.950;2023-01-23T12:02:20;3.30;1.00
4727;DHT22;2377;51.734;8.950;2023-01-23T12:05:16;3.20;2.70
4727;DHT22;2377;51.734;8.950;2023-01-23T12:08:01;3.30;3.20
4727;DHT22;2377;51.734;8.950;2023-01-23T12:10:52;3.30;4.90
4727;DHT22;2377;51.734;8.950;2023-01-23T12:13:40;3.30;15.30
4727;DHT22;2377;51.734;8.950;2023-01-23T12:16:23;3.30;5.10
4727;DHT22;2377;51.734;8.950;2023-01-23T12:19:09;3.30;20.70
4727;DHT22;2377;51.734;8.950;2023-01-23T12:21:52;3.30;2.60
4727;DHT22;2377;51.734;8.950;2023-01-23T12:24:39;3.30;7.00
4727;DHT22;2377;51.734;8.950;2023-01-23T12:27:25;3.40;1.00
4727;DHT22;2377;51.734;8.950;2023-01-23T12:30:11;3.40;1.00
4727;DHT22;2377;51.734;8.950;2023-01-23T12:33:30;3.30;1.00
4727;DHT22;2377;51.734;8.950;2023-01-23T12:36:32;3.30;2.30
4727;DHT22;2377;51.734;8.950;2023-01-23T12:39:22;3.30;5.70
4727;DHT22;2377;51.734;8.950;2023-01-23T12:42:09;3.20;1.00
4727;DHT22;2377;51.734;8.950;2023-01-23T12:44:50;3.10;7.10
4727;DHT22;2377;51.734;8.950;2023-01-23T12:47:26;3.20;4.40
4727;DHT22;2377;51.734;8.950;2023-01-23T12:50:02;3.20;1.00
4727;DHT22;2377;51.734;8.950;2023-01-23T12:52:36;3.10;3.50
4727;DHT22;2377;51.734;8.950;2023-01-23T12:55:15;3.10;8.70
4727;DHT22;2377;51.734;8.950;2023-01-23T12:57:46;3.10;8.50
4727;DHT22;2377;51.734;8.950;2023-01-23T13:00:27;3.10;3.40
4727;DHT22;2377;51.734;8.950;2023-01-23T13:09:54;3.10;8.80
4727;DHT22;2377;51.734;8.950;2023-01-23T13:12:44;3.10;9.40
4727;DHT22;2377;51.734;8.950;2023-01-23T13:15:30;3.10;12.90
4727;DHT22;2377;51.734;8.950;2023-01-23T13:18:00;3.10;6.00
4727;DHT22;2377;51.734;8.950;2023-01-23T13:20:30;3.10;6.80
4727;DHT22;2377;51.734;8.950;2023-01-23T13:23:24;3.10;8.20
4727;DHT22;2377;51.734;8.950;2023-01-23T13:26:25;3.10;10.50
4727;DHT22;2377;51.734;8.950;2023-01-23T13:28:58;3.00;8.20
4727;DHT22;2377;51.734;8.950;2023-01-23T13:31:41;3.00;10.50
4727;DHT22;2377;51.734;8.950;2023-01-23T13:34:37;3.00;17.00
4727;DHT22;2377;51.734;8.950;2023-01-23T13:40:23;3.00;20.20
4727;DHT22;2377;51.734;8.950;2023-01-23T13:42:50;3.00;21.10
4727;DHT22;2377;51.734;8.950;2023-01-23T13:45:32;3.00;20.70
4727;DHT22;2377;51.734;8.950;2023-01-23T13:51:33;3.00;17.10
4727;DHT22;2377;51.734;8.950;2023-01-23T13:54:00;3.00;20.80
4727;DHT22;2377;51.734;8.950;2023-01-23T13:56:46;3.00;24.40
4727;DHT22;2377;51.734;8.950;2023-01-23T13:59:29;3.00;23.50
4727;DHT22;2377;51.734;8.950;2023-01-23T14:02:04;3.00;22.60
4727;DHT22;2377;51.734;8.950;2023-01-23T14:05:07;3.00;26.10
4727;DHT22;2377;51.734;8.950;2023-01-23T14:07:41;3.00;18.60
4727;DHT22;2377;51.734;8.950;2023-01-23T14:10:22;3.00;16.60
4727;DHT22;2377;51.734;8.950;2023-01-23T14:13:01;3.00;13.80
4727;DHT22;2377;51.734;8.950;2023-01-23T14:15:31;3.00;21.00
4727;DHT22;2377;51.734;8.950;2023-01-23T14:18:23;2.90;21.30
4727;DHT22;2377;51.734;8.950;2023-01-23T14:21:03;2.90;21.90
4727;DHT22;2377;51.734;8.950;2023-01-23T14:23:35;2.90;24.40
4727;DHT22;2377;51.734;8.950;2023-01-23T14:26:06;2.80;27.10
4727;DHT22;2377;51.734;8.950;2023-01-23T14:28:36;2.80;23.80
4727;DHT22;2377;51.734;8.950;2023-01-23T14:31:05;2.80;30.80
4727;DHT22;2377;51.734;8.950;2023-01-23T14:33:40;2.80;31.80
4727;DHT22;2377;51.734;8.950;2023-01-23T14:36:14;2.80;28.30
4727;DHT22;2377;51.734;8.950;2023-01-23T14:38:45;2.80;29.70
4727;DHT22;2377;51.734;8.950;2023-01-23T14:41:14;2.80;34.60
4727;DHT22;2377;51.734;8.950;2023-01-23T14:43:42;2.70;40.60
4727;DHT22;2377;51.734;8.950;2023-01-23T14:46:15;2.70;38.10
4727;DHT22;2377;51.734;8.950;2023-01-23T14:48:48;2.70;38.10
4727;DHT22;2377;51.734;8.950;2023-01-23T14:51:20;2.70;37.00
4727;DHT22;2377;51.734;8.950;2023-01-23T14:53:52;2.60;48.20
4727;DHT22;2377;51.734;8.950;2023-01-23T14:56:23;2.60;52.30
4727;DHT22;2377;51.734;8.950;2023-01-23T14:58:54;2.60;53.60
4727;DHT22;2377;51.734;8.950;2023-01-23T15:01:24;2.60;43.90
4727;DHT22;2377;51.734;8.950;2023-01-23T15:03:58;2.60;53.60
4727;DHT22;2377;51.734;8.950;2023-01-23T15:06:30;2.60;56.90
4727;DHT22;2377;51.734;8.950;2023-01-23T15:09:14;2.60;30.20
4727;DHT22;2377;51.734;8.950;2023-01-23T15:11:43;2.60;51.20
4727;DHT22;2377;51.734;8.950;2023-01-23T15:14:22;2.60;49.30
4727;DHT22;2377;51.734;8.950;2023-01-23T15:17:00;2.50;58.60
4727;DHT22;2377;51.734;8.950;2023-01-23T15:19:31;2.60;47.80
4727;DHT22;2377;51.734;8.950;2023-01-23T15:22:15;2.60;51.20
4727;DHT22;2377;51.734;8.950;2023-01-23T15:24:45;2.50;45.70
4727;DHT22;2377;51.734;8.950;2023-01-23T15:27:25;2.60;47.10
4727;DHT22;2377;51.734;8.950;2023-01-23T15:30:35;2.50;46.60
4727;DHT22;2377;51.734;8.950;2023-01-23T15:33:23;2.50;53.20
4727;DHT22;2377;51.734;8.950;2023-01-23T15:36:01;2.50;51.50
4727;DHT22;2377;51.734;8.950;2023-01-23T15:38:30;2.50;43.10
4727;DHT22;2377;51.734;8.950;2023-01-23T15:40:59;2.50;54.60
4727;DHT22;2377;51.734;8.950;2023-01-23T15:43:26;2.40;60.90
4727;DHT22;2377;51.734;8.950;2023-01-23T15:45:56;2.30;67.40
4727;DHT22;2377;51.734;8.950;2023-01-23T15:48:24;2.30;66.40
4727;DHT22;2377;51.734;8.950;2023-01-23T15:50:51;2.30;65.80
4727;DHT22;2377;51.734;8.950;2023-01-23T15:53:19;2.30;69.70
4727;DHT22;2377;51.734;8.950;2023-01-23T15:55:48;2.30;76.20
4727;DHT22;2377;51.734;8.950;2023-01-23T15:58:15;2.30;76.20
4727;DHT22;2377;51.734;8.950;2023-01-23T16:00:42;2.30;76.00
4727;DHT22;2377;51.734;8.950;2023-01-23T16:03:10;2.30;81.00
4727;DHT22;2377;51.734;8.950;2023-01-23T16:05:39;2.30;83.80
4727;DHT22;2377;51.734;8.950;2023-01-23T16:08:16;2.20;85.00
4727;DHT22;2377;51.734;8.950;2023-01-23T16:10:48;2.20;82.50
4727;DHT22;2377;51.734;8.950;2023-01-23T16:13:16;2.10;94.00
4727;DHT22;2377;51.734;8.950;2023-01-23T16:15:43;2.10;88.20
4727;DHT22;2377;51.734;8.950;2023-01-23T16:18:10;2.10;93.20
4727;DHT22;2377;51.734;8.950;2023-01-23T16:20:38;2.10;99.90
4727;DHT22;2377;51.734;8.950;2023-01-23T16:23:12;2.10;99.90
4727;DHT22;2377;51.734;8.950;2023-01-23T16:25:42;2.10;99.90
4727;DHT22;2377;51.734;8.950;2023-01-23T16:28:12;2.10;99.90
4727;DHT22;2377;51.734;8.950;2023-01-23T16:30:41;2.10;99.90
4727;DHT22;2377;51.734;8.950;2023-01-23T16:33:08;2.10;99.90
4727;DHT22;2377;51.734;8.950;2023-01-23T16:35:35;2.00;99.90
4727;DHT22;2377;51.734;8.950;2023-01-23T16:38:03;2.10;99.90
4727;DHT22;2377;51.734;8.950;2023-01-23T16:40:31;2.10;99.90
4727;DHT22;2377;51.734;8.950;2023-01-23T16:42:59;2.10;99.90
4727;DHT22;2377;51.734;8.950;2023-01-23T16:45:29;2.10;99.90
4727;DHT22;2377;51.734;8.950;2023-01-23T16:47:58;2.10;96.10
4727;DHT22;2377;51.734;8.950;2023-01-23T16:50:30;2.10;99.90
4727;DHT22;2377;51.734;8.950;2023-01-23T16:53:03;2.10;99.90
4727;DHT22;2377;51.734;8.950;2023-01-23T16:55:34;2.10;99.90
4727;DHT22;2377;51.734;8.950;2023-01-23T16:58:05;2.10;99.90
4727;DHT22;2377;51.734;8.950;2023-01-23T17:00:35;2.10;99.90
4727;DHT22;2377;51.734;8.950;2023-01-23T17:03:03;2.10;99.90
4727;DHT22;2377;51.734;8.950;2023-01-23T17:05:35;2.10;96.10
4727;DHT22;2377;51.734;8.950;2023-01-23T17:08:15;2.10;99.90
4727;DHT22;2377;51.734;8.950;2023-01-23T17:10:43;2.10;99.90
4727;DHT22;2377;51.734;8.950;2023-01-23T17:13:12;2.10;99.90